AirNav   Air Wisconsin pilot careers
 
 1392 users online  

3Y7 Isabel Municipal Airport
Isabel, South Dakota, USA


FAA INFORMATION EFFECTIVE 09 NOVEMBER 2017

Location

FAA Identifier: 3Y7
Lat/Long: 45-23-22.9600N / 101-26-15.2600W
45-23.382667N / 101-26.254333W
45.3897111 / -101.4375722
(estimated)
Elevation: 2398 ft. / 731 m (estimated)
Variation: 10E (1985)
Time zone: UTC -7 (UTC -6 during Daylight Saving Time)
Zip code: 57633

Airport Operations

Airport use: Open to the public
Activation date: 11/1949
Control tower: no
ARTCC: MINNEAPOLIS CENTER
FSS: HURON FLIGHT SERVICE STATION
NOTAMs facility: HON (NOTAM-D service available)
Attendance: UNATNDD
Wind indicator: lighted
Segmented circle: no
Lights: ACTVT LIRL RY 13/31 - CTAF.
Beacon: white-green (lighted land airport)
Operates sunset to sunrise.

Airport Communications

CTAF: 122.9

Nearby radio navigation aids

VOR radial/distance  VOR name  Freq  Var
DPRr022/22.1DUPREE VORTAC116.8010E

Airport Services

Parking: tiedowns
Airframe service: NONE
Powerplant service: NONE
Bottled oxygen: NONE
Bulk oxygen: NONE

Runway Information

Runway 13/31

Dimensions: 3009 x 150 ft. / 917 x 46 m
Surface: turf, in fair condition
Runway edge lights: low intensity
Runway edge markings: 13/31 MARKED WITH 2 FT METAL A-FRAMES.
RUNWAY 13  RUNWAY 31
Latitude: 45-23.573333N45-23.192000N
Longitude: 101-26.478500W101-26.030167W
Elevation: 2386.0 ft.2383.0 ft.
Gradient: 0.1%0.1%
Traffic pattern: leftleft
Runway heading: 130 magnetic, 140 true310 magnetic, 320 true
Runway end identifier lights: nono
Obstructions: none24 ft. trees, 501 ft. from runway, 81 ft. left of centerline, 20:1 slope to clear

Airport Ownership and Management from official FAA records

Ownership: Publicly-owned
Owner: CITY OF ISABEL
PO BOX 268
ISABEL, SD 57633
Phone 605-466-2177
Manager: LARRY SIMPSON
PO BOX 268
ISABEL, SD 57633
Phone 605-466-2317

Airport Operational Statistics

Aircraft operations: 54/year *
56% transient general aviation
44% local general aviation
* for 12-month period ending 21 September 2016

Additional Remarks

RY CLSD DURING WINTER MONTHS.

Instrument Procedures

There are no published instrument procedures at 3Y7.

Some nearby airports with instrument procedures:

84D - Cheyenne Eagle Butte Airport (26 nm S)
KLEM - Lemmon Municipal Airport (42 nm NW)
KMBG - Mobridge Municipal Airport (44 nm E)
KHEI - Hettinger Municipal Airport (63 nm NW)
0D8 - Gettysburg Municipal Airport (67 nm E)
 
Loc | Ops | Rwys | IFR | FBO | Links
Com | Nav | Svcs | Stats | Notes


 
Area around 3Y7 (Isabel Municipal Airport)
 
Road maps at: MapQuest Bing Google
 
Aerial photo
WARNING: Photo may not be current or correct
Aerial photo of 3Y7 (Isabel Municipal Airport)
Photo by Steve Hamilton
Photo taken 28-Aug-2011
looking north.

Do you have a better or more recent aerial photo of Isabel Municipal Airport that you would like to share? If so, please send us your photo.

 
Sectional chart

 
Airport distance calculator
Flying to Isabel Municipal Airport? Find the distance to fly.

From to 3Y7

Sunrise and sunset
Times for 22-Nov-2017
 Local
(UTC-7)
 Zulu
(UTC)
Morning civil twilight06:2213:22
Sunrise06:5513:55
Sunset16:0923:09
Evening civil twilight16:4223:42

Current date and time
Zulu (UTC)  22-Nov-2017 16:31:14
Local (UTC-7)  22-Nov-2017 09:31:14
 
METAR
84D 
26nm S 
SuperAWOS
221555Z AUTO 22013G19KT 10SM M02/M08 A2993
D07 
32nm SW 
SuperAWOS
221539Z AUTO 10SM M03/M09 A2999
KD07 
33nm SW 
221556Z AUTO 24006KT M02/M07 A2997 RMK AO1 SLP192 T10221072
6V5 
44nm W 
SuperAWOS
221555Z AUTO 00000KT 10SM 04/M03 A3001
KMBG 
44nm E 
221552Z AUTO 19011KT 10SM FEW110 M02/M08 A2996 RMK AO2 SLP176 T10221078
KLEM 
45nm NW 
SuperAWOS
221455Z AUTO 17010G14KT 10SM M02/M07 A2999
TAF
KMBG 
44nm E 
221121Z 2212/2312 17011KT P6SM SKC FM221800 22013G20KT P6SM SCT200 FM230100 32009KT P6SM FEW250 FM231100 20006KT P6SM SCT070
NOTAMs
Click for the latest NOTAMs
NOTAMs are issued by the DoD/FAA and will open in a separate window not controlled by AirNav.

 

 
 

Would you like to see your business listed on this page?

 If your business provides an interesting product or service to pilots, flight crews, aircraft, or users of the Isabel Municipal Airport, you should consider listing it here.  To start the listing process, click on the button below
 
Add a business
 

Other Pages about Isabel Municipal Airport

Update a link
 
Copyright © AirNav, LLC. All rights reserved. Privacy Policy  Contact